Time;durP1;ratioP1;P1;durP2;ratioP2;P2;SDS_P1;SDS_P2;PMS_P1;PMS_P2;Temp;Humidity;BMP_temperature;BMP_pressure;BME280_temperature;BME280_humidity;BME280_pressure;Samples;Min_cycle;Max_cycle;Signal;HPM_P1;HPM_P2
2023/02/08 00:01:40;;;;;;;20.10;14.67;;;;;;;1.26;53.07;100817.22;7007331;28;20286;-80
2023/02/08 00:05:01;;;;;;;17.10;12.97;;;;;;;1.24;52.63;100832.41;7007026;28;20328;-80
2023/02/08 00:08:23;;;;;;;12.23;9.70;;;;;;;1.16;51.69;100804.63;7007448;28;20234;-80
2023/02/08 00:11:46;;;;;;;13.83;9.30;;;;;;;1.06;52.36;100816.81;7007419;28;20437;-80
2023/02/08 00:15:08;;;;;;;15.57;9.77;;;;;;;0.93;53.47;100807.88;7022937;28;20201;-80
2023/02/08 00:18:30;;;;;;;18.17;9.93;;;;;;;0.92;51.16;100763.69;7034757;28;20312;-80
2023/02/08 00:21:51;;;;;;;13.63;9.00;;;;;;;0.31;53.14;100787.84;7035749;28;20312;-80
2023/02/08 00:25:13;;;;;;;18.63;13.30;;;;;;;0.69;53.25;100765.16;7034700;28;20300;-80
2023/02/08 00:28:36;;;;;;;18.00;11.80;;;;;;;0.66;53.05;100794.50;7035900;28;20378;-80
2023/02/08 00:31:58;;;;;;;14.50;10.27;;;;;;;0.62;53.76;100793.03;7035603;28;20334;-80
2023/02/08 00:35:19;;;;;;;13.60;9.80;;;;;;;1.01;53.20;100782.53;7034579;28;20288;-81
2023/02/08 00:38:41;;;;;;;14.53;9.63;;;;;;;1.15;52.50;100785.19;7035143;28;20374;-80
2023/02/08 00:42:02;;;;;;;13.70;10.30;;;;;;;0.80;52.58;100783.91;7034978;28;20346;-80
2023/02/08 00:45:25;;;;;;;10.77;8.57;;;;;;;1.06;51.42;100772.47;7034798;28;20290;-80
2023/02/08 00:48:47;;;;;;;13.73;8.53;;;;;;;0.91;51.90;100784.09;7034810;28;20315;-80
2023/02/08 00:52:08;;;;;;;13.73;9.60;;;;;;;0.60;52.33;100781.63;7034936;28;20295;-80
2023/02/08 00:55:30;;;;;;;11.67;9.30;;;;;;;0.60;53.33;100786.94;7034343;28;20689;-81
2023/02/08 00:58:51;;;;;;;11.07;9.30;;;;;;;0.67;53.28;100792.72;7035361;28;20277;-80
2023/02/08 01:02:14;;;;;;;10.87;8.80;;;;;;;0.91;52.52;100802.69;7034466;28;20358;-80
2023/02/08 01:05:37;;;;;;;11.00;8.37;;;;;;;0.48;51.96;100718.69;7035017;28;20602;-80
2023/02/08 01:08:58;;;;;;;11.17;8.03;;;;;;;0.58;51.90;100793.28;7036289;28;20300;-80
2023/02/08 01:12:20;;;;;;;13.27;8.10;;;;;;;0.43;52.48;100781.81;7035264;28;20251;-80
2023/02/08 01:15:42;;;;;;;15.40;12.30;;;;;;;0.56;51.79;100798.72;7034390;28;20749;-80
2023/02/08 01:19:05;;;;;;;11.67;8.97;;;;;;;0.65;51.66;100803.44;7030114;28;20240;-80
2023/02/08 01:22:28;;;;;;;12.73;8.50;;;;;;;0.45;52.28;100813.56;7035638;28;20205;-80
2023/02/08 01:25:50;;;;;;;10.57;8.27;;;;;;;0.35;52.69;100799.13;7022704;28;20292;-80
2023/02/08 01:29:11;;;;;;;12.10;8.80;;;;;;;0.20;53.78;100774.38;7006872;28;20320;-80
2023/02/08 01:32:33;;;;;;;13.80;8.97;;;;;;;0.62;52.46;100793.03;7007416;28;20210;-80
2023/02/08 01:35:56;;;;;;;12.27;8.90;;;;;;;0.61;52.35;100751.47;7006572;28;20273;-80
2023/02/08 01:39:17;;;;;;;13.63;8.33;;;;;;;0.17;51.26;100790.50;7007096;28;20711;-80
2023/02/08 01:42:39;;;;;;;12.73;9.83;;;;;;;0.14;52.68;100785.38;7006983;28;20272;-80
2023/02/08 01:46:00;;;;;;;9.10;7.77;;;;;;;0.01;52.70;100757.88;7006422;28;20297;-80
2023/02/08 01:49:24;;;;;;;11.30;8.73;;;;;;;0.09;52.97;100728.25;7007286;28;20293;-80
2023/02/08 01:52:47;;;;;;;13.47;8.40;;;;;;;0.12;52.96;100776.66;7007209;28;20197;-80
2023/02/08 01:56:13;;;;;;;11.43;8.50;;;;;;;0.56;52.16;100772.16;7007015;28;20690;-80
2023/02/08 01:59:39;;;;;;;13.17;8.60;;;;;;;-0.12;53.15;100759.56;7006843;28;20716;-80
2023/02/08 02:03:01;;;;;;;10.80;7.77;;;;;;;0.08;52.46;100766.34;7007153;28;20225;-80
2023/02/08 02:06:26;;;;;;;11.43;8.80;;;;;;;0.32;51.33;100776.31;7007483;28;20369;-80
2023/02/08 02:09:52;;;;;;;11.67;7.90;;;;;;;0.10;51.80;100746.72;7006790;28;20389;-80
2023/02/08 02:13:16;;;;;;;12.27;8.27;;;;;;;0.20;52.13;100741.72;7006884;28;20269;-80
2023/02/08 02:16:38;;;;;;;9.40;7.60;;;;;;;0.49;51.10;100751.41;7006735;28;20259;-80
2023/02/08 02:20:04;;;;;;;10.53;7.97;;;;;;;-0.12;52.64;100764.84;7007505;28;20236;-80
2023/02/08 02:23:48;;;;;;;14.03;8.47;;;;;;;-0.42;52.34;100757.84;7007710;28;20674;-79
2023/02/08 02:27:52;;;;;;;13.57;9.60;;;;;;;-0.41;53.37;100735.72;7018578;28;20216;-80
2023/02/08 02:31:38;;;;;;;12.07;8.47;;;;;;;-0.04;52.14;100736.09;6999833;28;20214;-80
2023/02/08 02:35:04;;;;;;;11.97;8.23;;;;;;;-0.37;52.72;100737.22;7013131;28;20247;-81
2023/02/08 02:38:32;;;;;;;11.83;8.10;;;;;;;-0.68;53.70;100741.75;7005342;28;20650;-80
2023/02/08 02:45:42;;;;;;;12.73;8.90;;;;;;;-0.72;52.58;100743.72;7003438;28;20228;-80
2023/02/08 02:49:08;;;;;;;12.03;8.37;;;;;;;-0.77;52.95;100650.44;7004871;28;20316;-80
2023/02/08 02:52:37;;;;;;;12.73;8.50;;;;;;;-0.62;53.42;100741.38;7004708;28;20278;-80
2023/02/08 02:56:00;;;;;;;11.50;8.00;;;;;;;-0.51;53.38;100744.28;7003770;28;20256;-80
2023/02/08 02:59:22;;;;;;;11.50;8.30;;;;;;;-0.38;52.93;100751.44;7003887;28;20230;-80
2023/02/08 03:02:45;;;;;;;11.33;8.17;;;;;;;-0.40;52.99;100748.03;7003409;28;20816;-80
2023/02/08 03:06:12;;;;;;;13.23;9.07;;;;;;;-0.20;52.04;100746.88;7003633;28;20274;-80
2023/02/08 03:09:47;;;;;;;11.83;7.77;;;;;;;-0.26;52.38;100750.72;7003872;28;20319;-80
2023/02/08 03:13:15;;;;;;;10.57;7.53;;;;;;;-0.16;52.61;100734.16;7003975;28;20300;-80
2023/02/08 03:16:49;;;;;;;12.00;8.77;;;;;;;-0.35;52.54;100750.41;7003553;28;20726;-80
2023/02/08 03:20:15;;;;;;;13.77;9.10;;;;;;;-0.19;52.15;100719.41;7003954;28;20319;-80
2023/02/08 03:23:41;;;;;;;11.00;7.60;;;;;;;-0.40;51.90;100744.50;7004096;28;20350;-80
2023/02/08 03:27:07;;;;;;;9.37;6.93;;;;;;;-0.58;52.86;100746.44;7002949;28;20277;-80
2023/02/08 03:30:32;;;;;;;13.03;8.27;;;;;;;-0.68;53.25;100747.91;7003521;28;20312;-80
2023/02/08 03:33:57;;;;;;;11.10;7.77;;;;;;;-0.68;53.61;100750.56;7003668;28;20715;-80
2023/02/08 03:37:21;;;;;;;12.17;8.17;;;;;;;-0.70;52.58;100754.22;7003560;28;20375;-80
2023/02/08 03:40:47;;;;;;;12.30;8.33;;;;;;;-1.22;53.38;100691.91;7003736;28;20405;-80
2023/02/08 03:44:12;;;;;;;11.00;8.20;;;;;;;-0.63;53.14;100744.97;7004116;28;20281;-80
2023/02/08 03:47:36;;;;;;;10.77;8.50;;;;;;;-0.30;52.47;100751.81;7003291;28;20339;-80
2023/02/08 03:50:58;;;;;;;11.33;8.13;;;;;;;-0.32;51.69;100752.84;7004210;28;20359;-80
2023/02/08 03:54:24;;;;;;;9.33;8.27;;;;;;;-0.30;51.08;100746.53;7008527;28;20288;-80
2023/02/08 03:57:50;;;;;;;10.23;8.47;;;;;;;-0.63;51.58;100747.63;7008840;28;20324;-80
2023/02/08 04:01:16;;;;;;;9.50;7.53;;;;;;;-0.98;52.03;100740.84;7008926;28;20668;-80
2023/02/08 04:04:41;;;;;;;13.37;7.40;;;;;;;-0.67;52.68;100744.31;7007031;28;20208;-80
2023/02/08 04:08:02;;;;;;;12.10;8.07;;;;;;;-0.65;52.92;100747.72;7009132;28;20225;-80
2023/02/08 04:11:24;;;;;;;15.23;8.63;;;;;;;-0.60;52.83;100744.81;7008535;28;20214;-80
2023/02/08 04:14:46;;;;;;;10.20;8.20;;;;;;;-0.99;52.90;100736.47;7016219;28;20300;-80
2023/02/08 04:18:08;;;;;;;10.63;7.87;;;;;;;-0.50;52.45;100751.28;7036559;28;20289;-80
2023/02/08 04:21:29;;;;;;;13.83;8.73;;;;;;;-0.46;52.15;100748.38;7035911;28;20243;-80
2023/02/08 04:24:51;;;;;;;13.70;9.20;;;;;;;-0.52;51.85;100738.16;7034383;28;20232;-80
2023/02/08 04:28:12;;;;;;;10.43;7.73;;;;;;;-1.23;51.88;100651.41;7036702;28;20721;-80
2023/02/08 04:31:35;;;;;;;10.97;8.30;;;;;;;-0.59;51.43;100736.75;7036422;28;20225;-80
2023/02/08 04:34:57;;;;;;;13.50;8.90;;;;;;;-0.92;52.21;100706.94;7035906;28;20285;-80
2023/02/08 04:38:18;;;;;;;9.90;8.00;;;;;;;-0.67;51.54;100735.53;7035864;28;20269;-80
2023/02/08 04:41:40;;;;;;;13.23;9.27;;;;;;;-0.97;51.82;100716.06;7036230;28;20288;-80
2023/02/08 04:45:01;;;;;;;10.23;7.50;;;;;;;-1.13;52.49;100702.84;7035740;28;20269;-80
2023/02/08 04:48:24;;;;;;;12.40;8.57;;;;;;;-0.98;52.78;100731.09;7036245;28;20221;-80
2023/02/08 04:51:46;;;;;;;35.47;18.20;;;;;;;-0.81;51.95;100733.66;7035145;28;20295;-80
2023/02/08 04:55:08;;;;;;;38.83;18.80;;;;;;;-0.62;52.50;100730.78;7035395;28;20708;-80
2023/02/08 04:58:29;;;;;;;21.77;13.50;;;;;;;-0.60;52.24;100732.41;7035786;28;20317;-80
2023/02/08 05:01:51;;;;;;;20.77;10.97;;;;;;;-0.51;51.44;100725.72;7036041;28;20291;-80
2023/02/08 05:05:14;;;;;;;15.40;9.50;;;;;;;-0.48;51.06;100720.28;7033539;28;20757;-80
2023/02/08 05:08:35;;;;;;;13.57;9.03;;;;;;;-0.81;51.39;100704.53;7035954;28;20320;-80
2023/02/08 05:11:57;;;;;;;18.10;9.37;;;;;;;-0.91;51.59;100713.06;7035301;28;20354;-80
2023/02/08 05:15:18;;;;;;;17.60;8.97;;;;;;;-1.18;52.34;100712.81;7034803;28;20682;-80
2023/02/08 05:18:40;;;;;;;14.63;10.53;;;;;;;-0.90;52.37;100718.28;7035237;28;20253;-80
2023/02/08 05:22:03;;;;;;;15.23;10.27;;;;;;;-1.10;52.97;100715.06;7034746;28;20292;-80
2023/02/08 05:25:24;;;;;;;16.23;9.77;;;;;;;-1.05;52.93;100721.81;7033693;28;20296;-80
2023/02/08 05:28:46;;;;;;;21.23;10.50;;;;;;;-0.87;52.79;100719.91;7035101;28;20312;-80
2023/02/08 05:32:07;;;;;;;13.27;9.80;;;;;;;-0.80;51.59;100721.25;7036308;28;20779;-80
2023/02/08 05:35:28;;;;;;;13.27;8.17;;;;;;;-0.94;51.61;100715.91;7034031;28;20205;-80
2023/02/08 05:38:52;;;;;;;13.60;10.00;;;;;;;-1.13;52.41;100725.81;7034625;28;20706;-80
2023/02/08 05:42:13;;;;;;;14.30;9.47;;;;;;;-0.94;52.25;100711.47;7035930;28;20209;-82
2023/02/08 05:45:35;;;;;;;16.07;10.20;;;;;;;-0.59;53.71;100722.69;7037261;28;20272;-84
2023/02/08 05:48:57;;;;;;;15.63;10.07;;;;;;;-0.80;52.19;100722.13;7036547;28;20343;-80
2023/02/08 05:52:19;;;;;;;13.83;8.77;;;;;;;-0.78;51.45;100735.28;7036714;28;20686;-80
2023/02/08 05:55:44;;;;;;;12.47;8.47;;;;;;;-1.09;51.76;100693.81;7036297;28;20279;-80
2023/02/08 05:59:05;;;;;;;14.37;10.57;;;;;;;-0.76;51.33;100728.09;7036614;28;20319;-79
2023/02/08 06:02:27;;;;;;;18.40;10.33;;;;;;;-1.01;51.71;100731.28;7035873;28;20292;-81
2023/02/08 06:05:48;;;;;;;15.23;9.77;;;;;;;-0.99;52.00;100737.34;7036446;28;20272;-80
2023/02/08 06:09:10;;;;;;;13.97;9.70;;;;;;;-1.08;52.20;100721.13;7035577;28;20664;-81
2023/02/08 06:12:32;;;;;;;14.60;10.00;;;;;;;-0.87;51.60;100741.09;7033490;28;20297;-79
2023/02/08 06:15:54;;;;;;;12.80;9.57;;;;;;;-1.36;51.39;100750.06;7017436;28;20197;-80
2023/02/08 06:19:15;;;;;;;14.57;11.30;;;;;;;-1.72;53.27;100734.34;7020526;28;20289;-79
2023/02/08 06:22:37;;;;;;;19.27;12.80;;;;;;;-1.27;53.35;100741.59;7021037;28;20202;-79
2023/02/08 06:25:59;;;;;;;22.57;12.43;;;;;;;-1.07;52.48;100728.97;7003253;28;20206;-80
2023/02/08 06:29:22;;;;;;;25.50;13.63;;;;;;;-1.31;52.44;100742.72;7004494;28;20296;-79
2023/02/08 06:32:43;;;;;;;21.07;12.50;;;;;;;-1.30;52.11;100741.78;7005445;28;20235;-80
2023/02/08 06:36:05;;;;;;;20.90;13.60;;;;;;;-1.44;53.01;100747.81;7026460;28;20235;-79
2023/02/08 06:39:28;;;;;;;19.10;12.17;;;;;;;-1.36;52.42;100736.81;7033443;28;20319;-79
2023/02/08 06:42:49;;;;;;;18.97;12.33;;;;;;;-1.61;52.81;100732.00;7032786;28;20209;-79
2023/02/08 06:46:12;;;;;;;16.93;10.50;;;;;;;-1.46;53.15;100751.47;7033259;28;20216;-79
2023/02/08 06:49:34;;;;;;;17.70;11.00;;;;;;;-1.63;52.73;100743.59;7034833;28;20699;-79
2023/02/08 06:52:55;;;;;;;16.53;10.43;;;;;;;-1.24;52.94;100744.91;7035067;28;20292;-80
2023/02/08 06:56:17;;;;;;;14.00;9.97;;;;;;;-1.04;51.93;100728.81;7034467;28;20334;-79
2023/02/08 06:59:38;;;;;;;16.43;11.00;;;;;;;-1.22;52.38;100743.06;7034866;28;20320;-79
2023/02/08 07:03:01;;;;;;;13.10;9.57;;;;;;;-2.23;52.50;100689.53;7040096;28;20268;-80
2023/02/08 07:06:23;;;;;;;14.83;9.53;;;;;;;-1.64;53.19;100732.19;7052383;28;20215;-80
2023/02/08 07:09:44;;;;;;;15.03;9.43;;;;;;;-1.47;53.21;100708.31;7053155;28;20231;-80
2023/02/08 07:13:06;;;;;;;24.50;10.93;;;;;;;-1.37;52.92;100741.25;7027506;28;20240;-81
2023/02/08 07:16:28;;;;;;;17.97;11.03;;;;;;;-1.72;53.88;100758.16;7014171;28;20248;-81
2023/02/08 07:19:51;;;;;;;15.13;9.67;;;;;;;-1.18;52.29;100773.69;7014582;28;20293;-81
2023/02/08 07:23:12;;;;;;;15.30;10.33;;;;;;;-1.28;52.37;100756.63;7011425;28;20202;-80
2023/02/08 07:26:34;;;;;;;15.90;10.07;;;;;;;-1.51;53.25;100761.44;7007689;28;20347;-80
2023/02/08 07:29:55;;;;;;;16.90;10.37;;;;;;;-1.60;53.29;100743.44;7013159;28;20299;-80
2023/02/08 07:33:17;;;;;;;15.93;10.23;;;;;;;-1.51;53.04;100764.94;7009029;28;20261;-80
2023/02/08 07:36:39;;;;;;;17.20;11.07;;;;;;;-1.42;53.45;100763.59;7007088;28;20292;-80
2023/02/08 07:40:01;;;;;;;22.60;11.47;;;;;;;-1.76;53.58;100743.41;7007128;28;20282;-80
2023/02/08 07:43:22;;;;;;;17.00;12.00;;;;;;;-0.83;53.27;100750.56;7006701;28;20741;-80
2023/02/08 07:46:44;;;;;;;20.00;13.00;;;;;;;-0.60;52.56;100761.56;7005804;28;20258;-80
2023/02/08 07:50:06;;;;;;;25.80;16.00;;;;;;;-0.35;52.07;100751.28;7005703;28;20364;-79
2023/02/08 07:53:29;;;;;;;24.83;15.20;;;;;;;-0.69;52.53;100746.19;7005719;28;20617;-80
2023/02/08 07:56:51;;;;;;;24.33;14.77;;;;;;;-0.22;51.94;100754.91;7004611;28;20209;-81
2023/02/08 08:00:14;;;;;;;21.90;14.20;;;;;;;-0.02;52.00;100751.91;7005791;28;20316;-79
2023/02/08 08:03:35;;;;;;;22.93;15.40;;;;;;;0.38;51.25;100753.84;7009535;28;20240;-81
2023/02/08 08:06:57;;;;;;;25.73;15.97;;;;;;;0.60;50.37;100739.16;7019164;28;20377;-81
2023/02/08 08:10:19;;;;;;;23.73;16.33;;;;;;;0.36;50.97;100742.50;7025372;28;20249;-80
2023/02/08 08:13:41;;;;;;;28.87;16.73;;;;;;;0.58;50.29;100746.38;7005676;28;20217;-80
2023/02/08 08:17:02;;;;;;;22.13;15.20;;;;;;;0.81;50.85;100747.56;7006701;28;20351;-80
2023/02/08 08:20:24;;;;;;;26.47;15.57;;;;;;;1.01;51.09;100748.03;7006307;28;20274;-81
2023/02/08 08:23:46;;;;;;;24.13;16.07;;;;;;;0.94;50.32;100741.41;7006011;28;20258;-81
2023/02/08 08:27:09;;;;;;;24.50;16.50;;;;;;;1.11;50.45;100740.31;7005718;28;20301;-80
2023/02/08 08:30:30;;;;;;;25.37;16.17;;;;;;;1.47;50.47;100743.22;7006445;28;20228;-80
2023/02/08 08:33:52;;;;;;;24.23;14.77;;;;;;;1.62;48.69;100737.78;7006491;28;20266;-81
2023/02/08 08:37:13;;;;;;;25.83;15.83;;;;;;;1.25;49.61;100673.88;7005470;28;20278;-81
2023/02/08 08:40:35;;;;;;;23.70;16.27;;;;;;;2.16;49.48;100723.38;7006215;28;20808;-80
2023/02/08 08:43:58;;;;;;;21.07;13.53;;;;;;;5.50;42.64;100714.44;7006715;28;20347;-81
2023/02/08 08:47:20;;;;;;;20.27;12.03;;;;;;;7.48;37.29;100713.03;7011082;28;20258;-80
2023/02/08 08:50:42;;;;;;;21.97;12.87;;;;;;;9.05;35.08;100689.81;7009659;28;20310;-79
2023/02/08 08:54:04;;;;;;;16.27;11.87;;;;;;;9.60;33.14;100668.06;7011692;28;20221;-79
2023/02/08 08:57:26;;;;;;;19.13;12.50;;;;;;;9.04;34.21;100704.28;7012756;28;20199;-79
2023/02/08 09:00:49;;;;;;;19.83;13.77;;;;;;;10.31;32.12;100693.09;7012578;28;20267;-79
2023/02/08 09:04:11;;;;;;;21.60;13.27;;;;;;;10.78;31.09;100651.22;7011567;28;20229;-81
2023/02/08 09:07:33;;;;;;;16.67;12.90;;;;;;;9.96;30.53;100586.19;7013255;28;20823;-81
2023/02/08 09:10:54;;;;;;;19.50;14.23;;;;;;;10.30;30.55;100686.88;7012995;28;20306;-79
2023/02/08 09:14:16;;;;;;;19.60;13.23;;;;;;;9.37;31.23;100671.34;7012257;28;20299;-81
2023/02/08 09:17:39;;;;;;;21.17;14.40;;;;;;;8.94;31.99;100671.19;7013504;28;20710;-79
2023/02/08 09:21:05;;;;;;;21.30;13.30;;;;;;;7.67;33.51;100680.81;7012951;28;20777;-80
2023/02/08 09:24:27;;;;;;;18.13;12.87;;;;;;;7.57;34.69;100670.06;7013215;28;20192;-80
2023/02/08 09:27:49;;;;;;;19.33;13.13;;;;;;;6.32;36.40;100652.94;7013696;28;20256;-81
2023/02/08 09:31:12;;;;;;;24.00;13.93;;;;;;;5.52;37.05;100693.75;7014728;28;20210;-80
2023/02/08 09:34:35;;;;;;;16.10;11.40;;;;;;;6.27;35.45;100677.47;7011214;28;20242;-79
2023/02/08 09:38:01;;;;;;;18.53;11.83;;;;;;;6.09;34.97;100686.22;7011010;28;20301;-79
2023/02/08 09:41:33;;;;;;;15.90;11.50;;;;;;;5.78;35.11;100671.03;7013192;28;20196;-81
2023/02/08 09:45:18;;;;;;;19.27;11.80;;;;;;;5.99;35.24;100672.75;7015081;28;20188;-81
2023/02/08 09:48:41;;;;;;;16.73;12.10;;;;;;;6.55;33.30;100694.66;7018615;28;20230;-81
2023/02/08 09:52:08;;;;;;;17.23;10.77;;;;;;;5.33;35.51;100691.78;7017362;28;20365;-81
2023/02/08 09:55:34;;;;;;;18.63;12.37;;;;;;;5.45;35.68;100693.44;7010528;28;20329;-79
2023/02/08 09:58:56;;;;;;;15.23;11.07;;;;;;;5.99;35.70;100671.91;7012695;28;20228;-80
2023/02/08 10:02:23;;;;;;;16.67;11.47;;;;;;;7.00;34.21;100672.66;7013668;28;20234;-80
2023/02/08 10:05:45;;;;;;;17.70;11.27;;;;;;;7.98;31.89;100659.03;7015461;28;20206;-80
2023/02/08 10:09:13;;;;;;;17.33;11.13;;;;;;;6.85;32.10;100608.84;7011778;28;20224;-81
2023/02/08 10:12:43;;;;;;;17.00;11.13;;;;;;;7.83;32.28;100652.41;7010266;28;20217;-80
2023/02/08 10:16:12;;;;;;;15.53;10.70;;;;;;;6.65;32.47;100658.88;7010656;28;20283;-81
2023/02/08 10:19:43;;;;;;;15.30;10.73;;;;;;;7.55;32.01;100639.81;7011039;28;20260;-81
2023/02/08 10:23:18;;;;;;;15.00;10.70;;;;;;;7.64;32.13;100651.56;7024420;28;20226;-81
2023/02/08 10:26:44;;;;;;;16.77;10.30;;;;;;;6.84;32.31;100656.25;7039563;28;20204;-80
2023/02/08 10:30:30;;;;;;;14.43;9.50;;;;;;;6.00;33.20;100658.38;7039267;28;20280;-80
2023/02/08 10:33:55;;;;;;;13.47;9.40;;;;;;;7.16;31.83;100631.91;7037182;28;20266;-81
2023/02/08 10:37:20;;;;;;;14.20;9.77;;;;;;;7.12;33.22;100639.38;7046598;28;20202;-81
2023/02/08 10:40:41;;;;;;;16.10;10.00;;;;;;;8.07;30.83;100617.03;7045923;28;20223;-83
2023/02/08 10:44:15;;;;;;;12.03;8.33;;;;;;;8.58;29.94;100631.72;7028450;28;20231;-82
2023/02/08 10:47:42;;;;;;;12.17;8.60;;;;;;;7.77;30.35;100610.00;7010606;28;20217;-80
2023/02/08 10:51:04;;;;;;;11.33;8.87;;;;;;;8.60;29.79;100610.91;7008122;28;20238;-82
2023/02/08 10:54:26;;;;;;;12.77;8.43;;;;;;;7.88;30.52;100611.66;7006002;28;20295;-80
2023/02/08 10:57:49;;;;;;;11.47;8.07;;;;;;;8.39;30.00;100561.94;7006964;28;20282;-80
2023/02/08 11:01:12;;;;;;;11.20;7.50;;;;;;;8.01;30.74;100612.25;7005685;28;20313;-80
2023/02/08 11:04:34;;;;;;;12.93;8.00;;;;;;;8.13;29.51;100601.16;7006369;28;20252;-81
2023/02/08 11:08:06;;;;;;;16.20;8.80;;;;;;;7.73;30.97;100595.16;7006547;28;20339;-80
2023/02/08 11:11:33;;;;;;;9.63;7.63;;;;;;;7.28;31.56;100601.28;6968677;28;1072611;-80
2023/02/08 11:14:56;;;;;;;11.33;7.63;;;;;;;8.07;30.44;100588.31;7007616;28;20284;-80
2023/02/08 11:18:22;;;;;;;10.07;7.57;;;;;;;8.56;28.90;100565.66;7007188;28;20224;-80
2023/02/08 11:21:49;;;;;;;8.77;7.07;;;;;;;8.60;28.93;100581.31;7007219;28;20290;-80
2023/02/08 11:25:31;;;;;;;11.80;6.70;;;;;;;7.16;31.13;100565.69;7008588;28;20331;-80
2023/02/08 11:29:00;;;;;;;7.77;6.40;;;;;;;7.03;30.88;100586.59;7011847;28;20265;-80
2023/02/08 11:32:22;;;;;;;10.60;7.20;;;;;;;7.29;30.85;100560.03;7011625;28;20231;-80
2023/02/08 11:35:53;;;;;;;12.33;7.30;;;;;;;7.15;31.19;100512.19;7017954;28;20353;-80
2023/02/08 11:39:22;;;;;;;9.00;5.97;;;;;;;7.41;31.26;100554.38;7012285;28;20240;-80
2023/02/08 11:42:45;;;;;;;7.23;5.97;;;;;;;7.41;30.36;100543.66;7011397;28;20219;-81
2023/02/08 11:46:07;;;;;;;11.17;6.30;;;;;;;8.10;29.95;100517.31;7012048;28;20652;-81
2023/02/08 11:49:35;;;;;;;7.77;6.20;;;;;;;8.19;30.17;100548.69;7010930;28;20251;-81
2023/02/08 11:53:00;;;;;;;8.17;6.40;;;;;;;7.47;31.12;100543.09;7011301;28;20297;-81
2023/02/08 11:56:23;;;;;;;10.70;6.40;;;;;;;8.21;30.95;100550.28;7009925;28;20209;-81
2023/02/08 11:59:45;;;;;;;9.33;5.80;;;;;;;7.46;30.75;100493.09;7010580;28;20233;-81
2023/02/08 12:03:12;;;;;;;9.57;6.47;;;;;;;7.30;31.71;100502.72;7010499;28;20341;-78
2023/02/08 12:06:44;;;;;;;9.93;6.10;;;;;;;7.72;30.54;100531.72;7008401;28;20336;-79
2023/02/08 12:10:28;;;;;;;8.93;6.67;;;;;;;8.03;30.47;100529.66;7009060;28;20225;-78
2023/02/08 12:13:58;;;;;;;7.27;5.43;;;;;;;8.72;29.21;100520.97;7007652;28;20223;-79
2023/02/08 12:17:34;;;;;;;8.30;5.83;;;;;;;8.40;30.34;100501.78;7011455;28;20292;-78
2023/02/08 12:20:59;;;;;;;8.20;6.30;;;;;;;8.74;29.57;100475.09;7011421;28;20767;-78
2023/02/08 12:24:24;;;;;;;6.53;5.83;;;;;;;8.12;30.36;100513.50;7011260;28;20293;-78
2023/02/08 12:27:54;;;;;;;14.37;6.40;;;;;;;8.06;30.49;100516.78;7011505;28;20315;-78
2023/02/08 12:31:22;;;;;;;10.23;6.00;;;;;;;8.43;29.64;100504.16;7011314;28;20206;-78
2023/02/08 12:34:53;;;;;;;8.00;5.60;;;;;;;8.96;29.65;100448.59;7010399;28;20238;-79
2023/02/08 12:42:18;;;;;;;7.63;5.40;;;;;;;9.40;29.10;100502.25;7011486;28;20179;-78
2023/02/08 12:45:51;;;;;;;8.70;5.63;;;;;;;9.04;29.06;100462.13;7011108;28;20307;-78
2023/02/08 12:49:26;;;;;;;9.27;5.70;;;;;;;9.46;28.63;100472.03;7010591;28;20720;-79
2023/02/08 12:52:50;;;;;;;10.17;6.03;;;;;;;8.58;30.12;100469.56;7029690;28;20614;-79
2023/02/08 12:56:15;;;;;;;8.10;6.10;;;;;;;8.42;29.95;100445.22;7009204;28;20291;-79
2023/02/08 12:59:40;;;;;;;8.13;6.27;;;;;;;7.98;30.65;100454.91;7009585;28;20229;-79
2023/02/08 13:03:06;;;;;;;9.37;6.37;;;;;;;8.27;30.68;100417.16;7010781;28;20251;-79
2023/02/08 13:06:31;;;;;;;11.93;6.70;;;;;;;8.14;30.61;100457.75;7009248;28;20205;-81
2023/02/08 13:09:58;;;;;;;9.63;6.60;;;;;;;8.28;31.13;100448.41;7010333;28;20281;-86
2023/02/08 13:13:22;;;;;;;11.83;5.73;;;;;;;8.36;31.02;100421.63;7010697;28;20304;-81
2023/02/08 13:16:46;;;;;;;7.97;6.37;;;;;;;8.32;30.61;100439.03;7008639;28;20254;-80
2023/02/08 13:20:20;;;;;;;7.93;6.23;;;;;;;8.41;30.99;100435.44;7013482;28;20293;-80
2023/02/08 13:23:43;;;;;;;10.13;6.30;;;;;;;8.35;31.51;100428.84;7015846;28;20565;-80
2023/02/08 13:27:07;;;;;;;10.13;7.03;;;;;;;8.15;32.63;100421.88;7010549;28;20254;-82
2023/02/08 13:30:29;;;;;;;9.93;6.47;;;;;;;8.75;32.67;100414.94;7026965;28;20221;-80
2023/02/08 13:33:52;;;;;;;8.93;6.20;;;;;;;8.91;30.83;100407.03;7043835;28;20226;-79
2023/02/08 13:37:21;;;;;;;8.60;6.47;;;;;;;8.46;31.16;100401.75;7044720;28;20269;-80
2023/02/08 13:40:43;;;;;;;9.30;7.07;;;;;;;8.57;30.01;100353.13;7045474;28;20210;-79
2023/02/08 13:44:06;;;;;;;10.00;6.87;;;;;;;9.05;30.40;100423.44;7042807;28;20197;-79
2023/02/08 13:47:29;;;;;;;8.43;6.13;;;;;;;8.19;31.54;100417.03;7040782;28;20277;-79
2023/02/08 13:50:52;;;;;;;9.77;6.97;;;;;;;7.62;32.51;100383.28;7041229;28;20212;-79
2023/02/08 13:54:15;;;;;;;8.03;6.83;;;;;;;9.13;30.63;100423.50;7042733;28;20718;-79
2023/02/08 13:57:51;;;;;;;11.90;7.47;;;;;;;8.77;30.77;100416.47;7043737;28;20248;-79
2023/02/08 14:01:19;;;;;;;9.57;7.13;;;;;;;8.39;31.44;100414.09;7043321;28;20229;-80
2023/02/08 14:04:42;;;;;;;12.13;7.73;;;;;;;8.30;32.08;100425.75;7042645;28;20241;-79
2023/02/08 14:08:04;;;;;;;10.90;7.00;;;;;;;8.43;31.24;100411.94;7043355;28;20649;-80
2023/02/08 14:11:35;;;;;;;10.97;7.50;;;;;;;7.67;32.08;100390.88;7042720;28;20297;-79
2023/02/08 14:15:21;;;;;;;9.33;7.57;;;;;;;8.36;32.03;100410.88;7043469;28;20239;-79
2023/02/08 14:18:51;;;;;;;11.83;7.47;;;;;;;9.15;31.60;100391.91;7043686;28;20325;-79
2023/02/08 14:22:18;;;;;;;11.73;7.47;;;;;;;8.20;31.47;100348.91;7044023;28;20209;-79
2023/02/08 14:25:42;;;;;;;13.43;7.00;;;;;;;7.94;33.00;100440.06;7041757;28;20201;-79
2023/02/08 14:29:06;;;;;;;10.80;7.50;;;;;;;8.15;33.09;100423.69;7037277;28;20312;-79
2023/02/08 14:32:31;;;;;;;9.87;7.13;;;;;;;8.30;32.35;100439.19;7036711;28;20290;-79
2023/02/08 14:35:55;;;;;;;11.23;7.57;;;;;;;8.10;32.15;100332.81;7033904;28;20231;-80
2023/02/08 14:39:25;;;;;;;10.63;8.27;;;;;;;8.01;32.72;100440.34;7024988;28;20222;-80
2023/02/08 14:42:57;;;;;;;11.00;7.33;;;;;;;8.07;32.87;100373.41;7009243;28;20211;-80
2023/02/08 14:46:44;;;;;;;13.67;8.87;;;;;;;8.59;32.38;100422.84;7010843;28;20232;-81
2023/02/08 14:50:13;;;;;;;9.73;7.97;;;;;;;8.13;32.52;100398.84;7003259;28;20224;-80
2023/02/08 14:53:40;;;;;;;11.77;8.30;;;;;;;7.43;33.38;100420.91;7004548;28;20289;-79
2023/02/08 14:57:04;;;;;;;10.33;7.67;;;;;;;8.58;33.25;100423.84;7030619;28;20197;-79
2023/02/08 15:00:28;;;;;;;9.33;8.03;;;;;;;8.96;32.04;100391.25;7031385;28;20236;-80
2023/02/08 15:03:54;;;;;;;10.93;7.97;;;;;;;8.49;32.75;100416.72;7030869;28;20209;-79
2023/02/08 15:07:23;;;;;;;11.53;8.07;;;;;;;8.11;32.85;100428.53;7038869;28;20295;-79
2023/02/08 15:10:46;;;;;;;11.47;8.10;;;;;;;7.89;33.13;100391.31;7037496;28;20185;-79
2023/02/08 15:14:07;;;;;;;11.07;8.17;;;;;;;7.55;33.56;100424.28;7034760;28;20225;-80
2023/02/08 15:17:32;;;;;;;11.23;8.07;;;;;;;7.82;33.79;100435.88;7036128;28;20244;-79
2023/02/08 15:21:02;;;;;;;14.37;8.20;;;;;;;7.46;33.62;100435.88;7036950;28;20212;-80
2023/02/08 15:24:27;;;;;;;11.57;8.13;;;;;;;7.58;33.11;100424.81;7034587;28;20196;-79
2023/02/08 15:27:51;;;;;;;11.50;8.40;;;;;;;7.45;33.61;100424.31;7035251;28;20226;-79
2023/02/08 15:31:15;;;;;;;13.07;8.73;;;;;;;7.26;33.68;100389.47;7027864;28;20354;-80
2023/02/08 15:34:43;;;;;;;11.90;8.30;;;;;;;7.13;34.22;100420.31;7008323;28;20258;-79
2023/02/08 15:38:12;;;;;;;12.90;8.87;;;;;;;7.21;34.01;100428.47;7007015;28;20337;-79
2023/02/08 15:41:33;;;;;;;9.73;7.00;;;;;;;6.92;34.25;100395.47;7008241;28;20239;-79
2023/02/08 15:44:55;;;;;;;11.10;7.93;;;;;;;6.77;35.05;100421.88;7011980;28;20196;-80
2023/02/08 15:48:17;;;;;;;11.67;7.70;;;;;;;6.41;35.67;100432.44;7013129;28;20225;-79
2023/02/08 15:51:38;;;;;;;12.03;8.03;;;;;;;6.70;34.92;100409.19;7011603;28;20246;-79
2023/02/08 15:55:01;;;;;;;12.27;9.03;;;;;;;6.42;35.60;100423.44;7010758;28;20217;-79